createdAt,value
2022-08-07T00:00:18.778Z,2.87
2022-08-07T00:02:46.989Z,2.90
2022-08-07T00:05:14.126Z,2.60
2022-08-07T00:07:41.688Z,2.78
2022-08-07T00:10:27.206Z,2.60
2022-08-07T00:13:00.485Z,2.80
2022-08-07T00:15:38.170Z,2.90
2022-08-07T00:18:19.899Z,2.80
2022-08-07T00:20:49.637Z,2.47
2022-08-07T00:23:17.708Z,2.70
2022-08-07T00:25:45.801Z,2.80
2022-08-07T00:28:21.989Z,2.85
2022-08-07T00:30:49.457Z,3.08
2022-08-07T00:33:16.642Z,3.28
2022-08-07T00:35:49.502Z,3.10
2022-08-07T00:38:16.874Z,3.08
2022-08-07T00:40:59.889Z,3.20
2022-08-07T00:44:01.308Z,3.05
2022-08-07T00:46:14.593Z,2.92
2022-08-07T00:48:42.411Z,3.25
2022-08-07T00:51:09.976Z,2.87
2022-08-07T00:53:38.970Z,3.60
2022-08-07T00:56:18.524Z,2.72
2022-08-07T00:58:47.296Z,3.08
2022-08-07T01:01:18.172Z,3.30
2022-08-07T01:03:57.127Z,3.60
2022-08-07T01:06:30.453Z,3.25
2022-08-07T01:09:01.058Z,3.80
2022-08-07T01:12:09.539Z,3.20
2022-08-07T01:14:21.449Z,3.20
2022-08-07T01:16:56.558Z,3.40
2022-08-07T01:19:27.036Z,3.40
2022-08-07T01:21:59.515Z,3.60
2022-08-07T01:24:30.643Z,3.15
2022-08-07T01:26:59.875Z,3.17
2022-08-07T01:29:31.417Z,3.10
2022-08-07T01:32:05.564Z,3.30
2022-08-07T01:34:44.511Z,3.42
2022-08-07T01:37:17.297Z,3.50
2022-08-07T01:39:48.011Z,3.35
2022-08-07T01:42:39.794Z,3.72
2022-08-07T01:45:09.835Z,3.67
2022-08-07T01:48:17.626Z,3.75
2022-08-07T01:50:32.175Z,3.55
2022-08-07T01:53:00.484Z,3.53
2022-08-07T01:55:33.659Z,3.20
2022-08-07T01:58:06.727Z,3.35
2022-08-07T02:01:09.523Z,3.85
2022-08-07T02:03:48.660Z,3.70
2022-08-07T02:06:31.614Z,3.22
2022-08-07T02:09:04.373Z,3.50
2022-08-07T02:12:03.720Z,3.45
2022-08-07T02:14:35.711Z,3.55
2022-08-07T02:17:11.222Z,4.15
2022-08-07T02:20:04.586Z,3.97
2022-08-07T02:22:29.988Z,4.10
2022-08-07T02:24:58.035Z,3.42
2022-08-07T02:27:34.229Z,3.50
2022-08-07T02:30:07.447Z,3.47
2022-08-07T02:32:39.524Z,3.70
2022-08-07T02:36:29.364Z,4.07
2022-08-07T02:38:15.672Z,4.10
2022-08-07T02:40:46.683Z,4.20
2022-08-07T02:43:15.659Z,4.00
2022-08-07T02:45:59.145Z,3.83
2022-08-07T02:48:30.873Z,3.75
2022-08-07T02:51:03.528Z,3.60
2022-08-07T02:53:38.695Z,3.83
2022-08-07T02:56:17.437Z,4.12
2022-08-07T02:58:50.533Z,3.50
2022-08-07T03:01:36.009Z,4.18
2022-08-07T03:04:12.576Z,3.92
2022-08-07T03:06:44.924Z,3.80
2022-08-07T03:09:14.056Z,3.78
2022-08-07T03:11:52.258Z,4.00
2022-08-07T03:14:28.030Z,4.00
2022-08-07T03:16:56.682Z,4.07
2022-08-07T03:19:29.004Z,3.85
2022-08-07T03:22:06.262Z,4.00
2022-08-07T03:24:34.724Z,4.10
2022-08-07T03:27:05.272Z,4.47
2022-08-07T03:29:49.637Z,3.47
2022-08-07T03:32:21.991Z,3.55
2022-08-07T03:35:16.980Z,3.72
2022-08-07T03:37:45.911Z,3.80
2022-08-07T03:40:15.741Z,3.67
2022-08-07T03:42:44.229Z,3.65
2022-08-07T03:45:12.185Z,3.67
2022-08-07T03:47:59.433Z,3.35
2022-08-07T03:50:28.764Z,3.67
2022-08-07T03:53:00.180Z,3.70
2022-08-07T03:55:58.142Z,3.58
2022-08-07T03:59:05.127Z,3.50
2022-08-07T04:01:07.636Z,3.83
2022-08-07T04:03:53.549Z,3.60
2022-08-07T04:06:36.318Z,4.07
2022-08-07T04:09:15.436Z,3.33
2022-08-07T04:12:25.501Z,4.03
2022-08-07T04:14:38.817Z,3.47
2022-08-07T04:17:19.966Z,3.70
2022-08-07T04:19:52.050Z,3.35
2022-08-07T04:22:20.194Z,3.10
2022-08-07T04:24:51.356Z,3.28
2022-08-07T04:27:35.972Z,3.33
2022-08-07T04:30:11.743Z,3.75
2022-08-07T04:32:44.959Z,3.55
2022-08-07T04:35:15.912Z,3.47
2022-08-07T04:38:03.711Z,3.25
2022-08-07T04:40:31.390Z,3.42
2022-08-07T04:43:01.626Z,3.50
2022-08-07T04:46:00.372Z,3.30
2022-08-07T04:48:44.488Z,3.20
2022-08-07T04:51:27.781Z,3.20
2022-08-07T04:54:06.949Z,3.50
2022-08-07T04:58:13.693Z,3.05
2022-08-07T05:00:11.803Z,3.70
2022-08-07T05:02:36.565Z,3.20
2022-08-07T05:05:53.436Z,2.97
2022-08-07T05:11:57.262Z,3.22
2022-08-07T05:14:51.873Z,2.83
2022-08-07T05:17:52.777Z,2.90
2022-08-07T05:20:09.983Z,2.87
2022-08-07T05:22:38.467Z,3.17
2022-08-07T05:25:25.278Z,3.50
2022-08-07T05:28:02.452Z,3.08
2022-08-07T05:30:47.150Z,2.50
2022-08-07T05:33:15.214Z,2.95
2022-08-07T05:35:46.744Z,3.10
2022-08-07T05:39:00.643Z,2.90
2022-08-07T05:41:11.966Z,3.08
2022-08-07T05:43:49.569Z,2.87
2022-08-07T05:46:31.667Z,3.40
2022-08-07T05:48:59.748Z,2.87
2022-08-07T05:51:31.838Z,2.78
2022-08-07T05:54:13.096Z,2.78
2022-08-07T05:56:52.409Z,2.67
2022-08-07T05:59:21.267Z,2.58
2022-08-07T06:01:49.515Z,2.65
2022-08-07T06:04:18.408Z,2.00
2022-08-07T06:06:47.668Z,2.15
2022-08-07T06:10:03.801Z,2.95
2022-08-07T06:12:15.325Z,3.22
2022-08-07T06:14:49.693Z,3.10
2022-08-07T06:17:19.415Z,2.92
2022-08-07T06:20:03.451Z,3.03
2022-08-07T06:22:38.924Z,2.97
2022-08-07T06:25:10.181Z,2.67
2022-08-07T06:27:44.270Z,2.92
2022-08-07T06:30:37.987Z,3.12
2022-08-07T06:33:16.185Z,3.35
2022-08-07T06:38:31.643Z,4.00
2022-08-07T06:40:59.842Z,3.62
2022-08-07T06:43:39.442Z,3.10
2022-08-07T06:46:12.156Z,3.42
2022-08-07T06:48:42.173Z,4.28
2022-08-07T06:51:30.943Z,4.00
2022-08-07T06:55:29.150Z,3.47
2022-08-07T06:56:51.772Z,3.45
2022-08-07T07:00:14.594Z,3.70
2022-08-07T07:02:49.052Z,3.78
2022-08-07T07:05:06.956Z,3.95
2022-08-07T07:07:59.402Z,3.95
2022-08-07T07:10:29.686Z,3.92
2022-08-07T07:13:04.573Z,4.22
2022-08-07T07:15:36.154Z,3.90
2022-08-07T07:21:40.204Z,3.72
2022-08-07T07:24:17.990Z,4.00
2022-08-07T07:26:51.906Z,3.72
2022-08-07T07:29:38.710Z,3.60
2022-08-07T07:32:12.942Z,3.90
2022-08-07T07:34:48.586Z,3.30
2022-08-07T07:37:45.480Z,3.62
2022-08-07T07:40:14.958Z,2.83
2022-08-07T07:42:47.116Z,2.30
2022-08-07T07:45:19.591Z,2.08
2022-08-07T07:47:53.259Z,2.35
2022-08-07T07:50:36.681Z,1.87
2022-08-07T07:53:20.462Z,1.92
2022-08-07T07:55:57.975Z,2.12
2022-08-07T07:58:40.165Z,2.10
2022-08-07T08:02:03.331Z,2.08
2022-08-07T08:04:09.523Z,1.87
2022-08-07T08:06:40.787Z,1.90
2022-08-07T08:09:20.287Z,1.48
2022-08-07T08:12:02.963Z,1.80
2022-08-07T08:14:36.399Z,1.50
2022-08-07T08:17:56.230Z,1.45
2022-08-07T08:20:22.232Z,1.75
2022-08-07T08:23:09.406Z,1.58
2022-08-07T08:25:56.976Z,1.48
2022-08-07T08:28:38.112Z,1.50
2022-08-07T08:31:22.951Z,1.55
2022-08-07T08:34:06.216Z,1.80
2022-08-07T08:36:36.692Z,1.50
2022-08-07T08:39:07.724Z,1.70
2022-08-07T08:41:57.705Z,1.73
2022-08-07T08:44:49.008Z,1.70
2022-08-07T08:47:31.429Z,1.70
2022-08-07T08:50:34.750Z,1.80
2022-08-07T08:53:15.220Z,1.77
2022-08-07T08:55:58.885Z,1.50
2022-08-07T08:58:35.291Z,1.30
2022-08-07T09:01:15.059Z,1.50
2022-08-07T09:03:55.574Z,1.60
2022-08-07T09:06:42.717Z,1.62
2022-08-07T09:09:44.622Z,1.80
2022-08-07T09:12:31.587Z,1.90
2022-08-07T09:16:25.606Z,1.70
2022-08-07T09:18:53.307Z,1.90
2022-08-07T09:22:09.725Z,1.90
2022-08-07T09:24:59.451Z,2.20
2022-08-07T09:27:38.363Z,2.00
2022-08-07T09:30:27.902Z,2.20
2022-08-07T09:33:12.133Z,2.03
2022-08-07T09:36:06.015Z,2.08
2022-08-07T09:38:54.738Z,1.90
2022-08-07T09:41:58.437Z,1.87
2022-08-07T09:47:58.963Z,2.40
2022-08-07T09:51:25.951Z,2.00
2022-08-07T09:53:59.311Z,2.30
2022-08-07T09:56:46.440Z,2.08
2022-08-07T10:00:00.330Z,2.12
2022-08-07T10:05:12.083Z,2.03
2022-08-07T10:07:58.557Z,1.90
2022-08-07T10:12:00.248Z,2.03
2022-08-07T10:14:12.794Z,2.47
2022-08-07T10:16:59.712Z,2.00
2022-08-07T10:19:46.136Z,2.20
2022-08-07T10:22:45.397Z,2.25
2022-08-07T10:25:13.127Z,2.45
2022-08-07T10:27:58.803Z,2.30
2022-08-07T10:30:48.275Z,2.30
2022-08-07T10:34:06.218Z,2.00
2022-08-07T10:36:45.459Z,2.40
2022-08-07T10:40:05.210Z,2.45
2022-08-07T10:42:38.634Z,2.45
2022-08-07T10:45:44.420Z,2.30
2022-08-07T10:48:21.461Z,2.42
2022-08-07T10:51:16.874Z,2.30
2022-08-07T10:54:08.838Z,2.30
2022-08-07T10:56:54.868Z,2.33
2022-08-07T10:59:47.985Z,2.30
2022-08-07T11:02:42.476Z,2.20
2022-08-07T11:05:36.007Z,2.28
2022-08-07T11:08:46.059Z,2.45
2022-08-07T11:11:24.290Z,2.37
2022-08-07T11:14:44.755Z,2.70
2022-08-07T11:16:52.821Z,2.62
2022-08-07T11:19:37.448Z,2.53
2022-08-07T11:22:33.264Z,2.70
2022-08-07T11:25:42.560Z,2.62
2022-08-07T11:28:24.694Z,2.87
2022-08-07T11:31:08.891Z,2.70
2022-08-07T11:33:53.541Z,2.60
2022-08-07T11:36:37.638Z,2.67
2022-08-07T11:39:19.489Z,2.70
2022-08-07T11:42:02.076Z,2.90
2022-08-07T11:44:57.951Z,2.80
2022-08-07T11:48:03.448Z,2.50
2022-08-07T11:51:04.631Z,2.60
2022-08-07T11:54:02.350Z,2.85
2022-08-07T11:57:01.315Z,2.60
2022-08-07T12:00:10.777Z,2.97
2022-08-07T12:03:45.369Z,2.65
2022-08-07T12:09:16.257Z,2.83
2022-08-07T12:12:09.450Z,2.62
2022-08-07T12:14:55.762Z,3.00
2022-08-07T12:17:58.609Z,3.03
2022-08-07T12:20:36.538Z,2.62
2022-08-07T12:23:09.110Z,2.78
2022-08-07T12:29:07.017Z,2.78
2022-08-07T12:32:01.743Z,2.80
2022-08-07T12:34:33.712Z,2.45
2022-08-07T12:37:01.831Z,2.92
2022-08-07T12:39:44.506Z,3.22
2022-08-07T12:42:27.870Z,2.65
2022-08-07T12:44:58.392Z,2.97
2022-08-07T12:47:44.033Z,2.87
2022-08-07T12:50:49.680Z,2.85
2022-08-07T12:54:03.155Z,3.10
2022-08-07T12:56:31.337Z,3.08
2022-08-07T12:58:59.785Z,2.90
2022-08-07T13:01:32.616Z,2.80
2022-08-07T13:04:13.761Z,3.03
2022-08-07T13:08:14.363Z,3.12
2022-08-07T13:10:28.852Z,3.20
2022-08-07T13:13:46.659Z,3.05
2022-08-07T13:16:21.654Z,3.10
2022-08-07T13:19:21.645Z,3.35
2022-08-07T13:22:31.618Z,2.62
2022-08-07T13:25:24.175Z,2.87
2022-08-07T13:28:13.353Z,2.62
2022-08-07T13:30:49.131Z,2.95
2022-08-07T13:34:33.212Z,2.72
2022-08-07T13:36:51.385Z,2.42
2022-08-07T13:40:36.371Z,2.65
2022-08-07T13:42:46.478Z,2.80
2022-08-07T13:46:11.610Z,2.62
2022-08-07T13:48:05.845Z,2.90
2022-08-07T13:50:58.849Z,2.28
2022-08-07T13:53:55.239Z,2.90
2022-08-07T13:56:36.367Z,2.43
2022-08-07T13:59:15.774Z,2.70
2022-08-07T14:01:59.268Z,2.58
2022-08-07T14:04:35.731Z,2.70
2022-08-07T14:07:09.597Z,2.62
2022-08-07T14:09:42.214Z,2.92
2022-08-07T14:12:55.679Z,2.83
2022-08-07T14:15:31.996Z,2.90
2022-08-07T14:18:28.611Z,2.70
2022-08-07T14:22:00.541Z,2.30
2022-08-07T14:24:06.605Z,2.30
2022-08-07T14:26:50.733Z,2.30
2022-08-07T14:30:06.432Z,2.75
2022-08-07T14:32:15.115Z,2.28
2022-08-07T14:37:36.294Z,2.50
2022-08-07T14:40:17.119Z,2.33
2022-08-07T14:43:56.038Z,2.50
2022-08-07T14:45:54.614Z,2.50
2022-08-07T14:48:27.627Z,2.40
2022-08-07T14:51:01.702Z,2.42
2022-08-07T14:54:05.923Z,2.33
2022-08-07T15:00:05.322Z,2.37
2022-08-07T15:04:57.871Z,2.50
2022-08-07T15:07:47.135Z,2.50
2022-08-07T15:10:25.016Z,2.25
2022-08-07T15:13:00.060Z,2.72
2022-08-07T15:15:40.602Z,2.80
2022-08-07T15:18:14.286Z,2.58
2022-08-07T15:21:03.984Z,2.97
2022-08-07T15:26:33.921Z,2.97
2022-08-07T15:30:08.644Z,2.47
2022-08-07T15:32:01.903Z,2.70
2022-08-07T15:34:50.569Z,2.40
2022-08-07T15:37:27.600Z,2.58
2022-08-07T15:39:59.168Z,2.50
2022-08-07T15:42:46.368Z,2.62
2022-08-07T15:45:20.989Z,2.50
2022-08-07T15:48:01.924Z,2.40
2022-08-07T15:50:37.935Z,2.65
2022-08-07T15:53:51.639Z,2.58
2022-08-07T15:56:33.100Z,2.40
2022-08-07T15:59:06.468Z,2.40
2022-08-07T16:02:01.929Z,2.47
2022-08-07T16:04:32.107Z,2.55
2022-08-07T16:07:04.684Z,2.37
2022-08-07T16:09:41.136Z,2.75
2022-08-07T16:12:31.617Z,2.70
2022-08-07T16:15:54.823Z,2.40
2022-08-07T16:18:50.053Z,2.15
2022-08-07T16:21:44.058Z,2.50
2022-08-07T16:24:33.866Z,2.75
2022-08-07T16:27:45.125Z,2.55
2022-08-07T16:30:31.715Z,2.92
2022-08-07T16:34:01.305Z,2.62
2022-08-07T16:36:19.662Z,3.00
2022-08-07T16:39:33.460Z,2.28
2022-08-07T16:42:22.412Z,2.22
2022-08-07T16:45:15.613Z,2.28
2022-08-07T16:48:09.487Z,2.50
2022-08-07T16:51:20.988Z,2.75
2022-08-07T16:53:48.086Z,2.45
2022-08-07T16:56:29.933Z,2.42
2022-08-07T16:59:11.190Z,2.60
2022-08-07T17:02:09.084Z,2.47
2022-08-07T17:04:51.050Z,2.45
2022-08-07T17:07:55.087Z,2.67
2022-08-07T17:10:38.750Z,2.53
2022-08-07T17:13:41.645Z,2.78
2022-08-07T17:16:40.042Z,2.60
2022-08-07T17:19:17.652Z,2.60
2022-08-07T17:22:30.212Z,2.90
2022-08-07T17:25:13.202Z,2.37
2022-08-07T17:27:59.407Z,2.25
2022-08-07T17:30:36.075Z,2.42
2022-08-07T17:34:10.023Z,2.45
2022-08-07T17:36:27.466Z,2.55
2022-08-07T17:39:58.892Z,2.57
2022-08-07T17:42:59.674Z,2.58
2022-08-07T17:45:40.397Z,3.03
2022-08-07T17:48:30.742Z,2.78
2022-08-07T17:51:16.311Z,3.80
2022-08-07T17:54:13.149Z,3.10
2022-08-07T17:57:19.317Z,3.00
2022-08-07T17:59:55.174Z,2.83
2022-08-07T18:02:29.717Z,2.92
2022-08-07T18:05:20.650Z,3.17
2022-08-07T18:08:24.386Z,3.05
2022-08-07T18:12:16.539Z,2.40
2022-08-07T18:14:37.578Z,2.40
2022-08-07T18:18:45.374Z,2.50
2022-08-07T18:21:11.036Z,2.42
2022-08-07T18:23:43.106Z,2.50
2022-08-07T18:26:16.394Z,2.40
2022-08-07T18:30:07.092Z,2.62
2022-08-07T18:32:17.746Z,2.15
2022-08-07T18:35:07.895Z,2.28
2022-08-07T18:38:55.184Z,2.62
2022-08-07T18:41:09.312Z,2.35
2022-08-07T18:43:49.722Z,2.15
2022-08-07T18:46:27.214Z,2.20
2022-08-07T18:50:18.865Z,2.05
2022-08-07T18:52:37.557Z,2.25
2022-08-07T18:55:40.524Z,2.17
2022-08-07T18:58:22.641Z,2.22
2022-08-07T19:01:00.845Z,2.65
2022-08-07T19:03:55.701Z,2.15
2022-08-07T19:06:48.355Z,2.42
2022-08-07T19:09:55.551Z,1.92
2022-08-07T19:12:59.174Z,2.17
2022-08-07T19:16:04.759Z,2.22
2022-08-07T19:18:45.089Z,2.20
2022-08-07T19:21:46.629Z,2.20
2022-08-07T19:24:48.805Z,2.15
2022-08-07T19:28:57.463Z,2.15
2022-08-07T19:31:04.297Z,2.30
2022-08-07T19:33:10.175Z,1.80
2022-08-07T19:35:41.147Z,1.60
2022-08-07T19:38:16.826Z,1.60
2022-08-07T19:40:50.407Z,2.05
2022-08-07T19:43:50.123Z,1.83
2022-08-07T19:46:10.526Z,2.15
2022-08-07T19:48:42.438Z,2.05
2022-08-07T19:51:19.344Z,2.10
2022-08-07T19:54:31.356Z,1.85
2022-08-07T19:57:51.466Z,1.42
2022-08-07T19:59:40.540Z,1.80
2022-08-07T20:02:24.147Z,1.67
2022-08-07T20:04:56.203Z,1.50
2022-08-07T20:07:46.096Z,1.60
2022-08-07T20:10:36.797Z,1.67
2022-08-07T20:13:22.475Z,1.42
2022-08-07T20:15:53.890Z,1.40
2022-08-07T20:18:33.641Z,1.73
2022-08-07T20:21:20.824Z,1.42
2022-08-07T20:24:04.176Z,1.52
2022-08-07T20:26:45.201Z,1.27
2022-08-07T20:29:48.672Z,1.20
2022-08-07T20:32:11.651Z,1.35
2022-08-07T20:34:52.096Z,1.60
2022-08-07T20:37:25.458Z,1.30
2022-08-07T20:40:02.521Z,1.62
2022-08-07T20:42:33.904Z,1.30
2022-08-07T20:45:01.759Z,1.40
2022-08-07T20:47:56.877Z,1.80
2022-08-07T20:50:22.031Z,1.70
2022-08-07T20:52:52.917Z,1.50
2022-08-07T20:55:23.898Z,1.52
2022-08-07T20:58:03.879Z,2.00
2022-08-07T21:00:42.841Z,1.37
2022-08-07T21:03:19.301Z,1.67
2022-08-07T21:05:56.514Z,1.60
2022-08-07T21:08:37.851Z,1.35
2022-08-07T21:11:14.474Z,1.42
2022-08-07T21:14:16.595Z,1.42
2022-08-07T21:16:57.016Z,1.50
2022-08-07T21:19:51.005Z,1.60
2022-08-07T21:22:28.620Z,1.40
2022-08-07T21:25:12.361Z,1.40
2022-08-07T21:28:01.804Z,1.42
2022-08-07T21:30:39.295Z,1.10
2022-08-07T21:33:17.709Z,1.20
2022-08-07T21:36:11.619Z,1.15
2022-08-07T21:39:02.309Z,1.40
2022-08-07T21:42:01.416Z,1.15
2022-08-07T21:44:44.262Z,1.02
2022-08-07T21:47:34.657Z,1.30
2022-08-07T21:50:06.100Z,1.02
2022-08-07T21:52:58.762Z,1.20
2022-08-07T21:55:31.876Z,1.58
2022-08-07T21:58:45.767Z,1.80
2022-08-07T22:01:20.976Z,2.00
2022-08-07T22:04:11.979Z,1.67
2022-08-07T22:07:01.819Z,1.52
2022-08-07T22:09:34.787Z,1.30
2022-08-07T22:12:21.741Z,1.48
2022-08-07T22:16:42.807Z,1.40
2022-08-07T22:17:57.899Z,1.48
2022-08-07T22:20:40.050Z,1.27
2022-08-07T22:23:25.282Z,1.40
2022-08-07T22:26:22.955Z,1.75
2022-08-07T22:29:15.160Z,1.48
2022-08-07T22:32:00.084Z,1.17
2022-08-07T22:34:41.793Z,1.42
2022-08-07T22:38:03.432Z,1.10
2022-08-07T22:41:10.007Z,1.37
2022-08-07T22:43:56.402Z,1.37
2022-08-07T22:47:03.526Z,1.30
2022-08-07T22:49:33.829Z,1.10
2022-08-07T22:52:19.656Z,1.12
2022-08-07T22:55:29.695Z,0.90
2022-08-07T22:57:58.982Z,1.08
2022-08-07T23:01:02.881Z,1.17
2022-08-07T23:03:59.069Z,1.17
2022-08-07T23:10:00.650Z,1.05
2022-08-07T23:12:51.576Z,1.20
2022-08-07T23:16:07.248Z,1.00
2022-08-07T23:19:48.223Z,1.20
2022-08-07T23:22:52.307Z,0.88
2022-08-07T23:25:32.065Z,1.40
2022-08-07T23:28:28.703Z,1.40
2022-08-07T23:31:06.960Z,1.33
2022-08-07T23:34:34.012Z,0.90
2022-08-07T23:37:19.444Z,0.90
2022-08-07T23:40:03.182Z,1.00
2022-08-07T23:42:45.562Z,1.17
2022-08-07T23:46:03.413Z,1.30
2022-08-07T23:48:40.746Z,1.17
2022-08-07T23:52:59.570Z,1.17
2022-08-07T23:54:36.229Z,0.95
2022-08-07T23:57:31.072Z,1.10
